Time;durP1;ratioP1;P1;durP2;ratioP2;P2;SDS_P1;SDS_P2;PMS_P1;PMS_P2;Temp;Humidity;BMP_temperature;BMP_pressure;BME280_temperature;BME280_humidity;BME280_pressure;Samples;Min_cycle;Max_cycle;Signal;HPM_P1;HPM_P2
2024/02/14 00:01:15;;;;;;;6.85;4.03;;;;;;;7.00;83.41;100683.16;5111250;28;20047;-47
2024/02/14 00:03:43;;;;;;;6.65;3.95;;;;;;;7.15;84.04;100679.94;5111072;28;20055;-48
2024/02/14 00:06:13;;;;;;;8.45;4.30;;;;;;;7.02;84.38;100683.97;5111166;28;20043;-49
2024/02/14 00:08:41;;;;;;;7.47;4.22;;;;;;;6.89;84.47;100681.78;5111053;28;20493;-50
2024/02/14 00:11:14;;;;;;;7.00;4.10;;;;;;;7.00;84.44;100689.34;5111573;28;20109;-50
2024/02/14 00:13:43;;;;;;;8.10;4.20;;;;;;;7.02;84.17;100683.97;5111128;28;20043;-47
2024/02/14 00:16:12;;;;;;;7.72;4.20;;;;;;;6.91;84.87;100688.81;5111242;28;20436;-52
2024/02/14 00:18:40;;;;;;;7.45;4.35;;;;;;;6.91;85.07;100688.81;5111053;28;20051;-49
2024/02/14 00:21:09;;;;;;;5.72;3.92;;;;;;;6.93;84.91;100695.78;5111121;28;20082;-48
2024/02/14 00:23:37;;;;;;;7.07;4.00;;;;;;;6.92;84.93;100699.38;5110980;28;20044;-49
2024/02/14 00:26:06;;;;;;;8.40;4.30;;;;;;;6.95;84.96;100703.69;5111171;28;20062;-48
2024/02/14 00:28:34;;;;;;;7.65;4.22;;;;;;;7.01;85.19;100706.13;5111006;28;20054;-51
2024/02/14 00:31:03;;;;;;;10.50;4.40;;;;;;;7.03;84.82;100701.59;5110989;28;20059;-48
2024/02/14 00:33:32;;;;;;;8.30;4.30;;;;;;;7.16;84.89;100706.41;5110894;28;20055;-48
2024/02/14 00:36:01;;;;;;;6.65;4.28;;;;;;;7.26;85.10;100706.03;5110683;28;20058;-44
2024/02/14 00:38:29;;;;;;;7.00;3.85;;;;;;;7.04;84.14;100711.28;5111078;28;20097;-50
2024/02/14 00:40:58;;;;;;;8.23;4.00;;;;;;;7.18;83.54;100709.00;5110907;28;20051;-50
2024/02/14 00:43:26;;;;;;;5.80;3.80;;;;;;;7.06;83.81;100710.34;5111090;28;20047;-47
2024/02/14 00:45:56;;;;;;;6.30;3.97;;;;;;;7.10;84.07;100708.41;5114640;28;20054;-49
2024/02/14 00:48:26;;;;;;;6.10;3.75;;;;;;;7.07;83.62;100717.38;5114806;28;20069;-47
2024/02/14 00:50:54;;;;;;;6.68;4.18;;;;;;;7.16;84.64;100716.16;5114713;28;20450;-49
2024/02/14 00:53:23;;;;;;;6.90;4.07;;;;;;;7.07;83.79;100716.50;5114689;27;20412;-48
2024/02/14 00:55:51;;;;;;;8.48;4.20;;;;;;;7.13;84.72;100724.19;5114587;28;20054;-47
2024/02/14 00:58:20;;;;;;;6.72;3.85;;;;;;;7.17;84.56;100725.84;5114487;28;20149;-49
2024/02/14 01:00:49;;;;;;;6.15;3.90;;;;;;;7.17;83.30;100731.13;5114390;28;20055;-47
2024/02/14 01:03:17;;;;;;;9.05;4.30;;;;;;;7.16;83.57;100726.75;5114329;28;20467;-50
2024/02/14 01:05:48;;;;;;;6.40;3.97;;;;;;;7.17;83.22;100733.78;5114442;28;20066;-47
2024/02/14 01:08:17;;;;;;;6.93;4.00;;;;;;;7.21;83.76;100726.56;5114405;28;20044;-46
2024/02/14 01:10:46;;;;;;;7.13;4.30;;;;;;;7.14;83.39;100723.28;5114144;28;20075;-47
2024/02/14 01:13:15;;;;;;;7.32;4.13;;;;;;;7.16;83.12;100726.75;5114241;28;20044;-51
2024/02/14 01:15:43;;;;;;;8.70;3.92;;;;;;;7.11;83.63;100726.91;5114007;28;20055;-47
2024/02/14 01:18:11;;;;;;;9.05;4.10;;;;;;;7.06;83.27;100722.72;5114415;28;20457;-48
2024/02/14 01:20:40;;;;;;;5.72;3.70;;;;;;;7.13;84.14;100726.84;5114302;28;20047;-51
2024/02/14 01:23:10;;;;;;;7.88;4.30;;;;;;;7.07;84.48;100724.47;5114122;28;20044;-49
2024/02/14 01:25:38;;;;;;;7.40;3.95;;;;;;;7.12;84.54;100719.81;5113875;28;20550;-48
2024/02/14 01:28:07;;;;;;;8.30;4.07;;;;;;;7.07;84.73;100727.09;5113925;28;20461;-50
2024/02/14 01:30:36;;;;;;;8.07;4.28;;;;;;;7.10;84.39;100726.97;5113668;28;20044;-48
2024/02/14 01:33:05;;;;;;;6.40;4.20;;;;;;;7.05;84.76;100723.66;5114092;28;20048;-47
2024/02/14 01:35:34;;;;;;;7.05;4.03;;;;;;;7.00;85.74;100720.31;5113762;28;20507;-49
2024/02/14 01:38:03;;;;;;;8.63;3.85;;;;;;;7.00;85.90;100730.91;5113619;28;20047;-49
2024/02/14 01:40:33;;;;;;;10.13;4.47;;;;;;;6.96;85.57;100721.34;5113813;28;20048;-50
2024/02/14 01:43:01;;;;;;;8.25;4.53;;;;;;;6.84;86.49;100726.16;5113457;28;20040;-48
2024/02/14 01:45:29;;;;;;;9.55;4.50;;;;;;;6.84;86.44;100726.16;5113658;28;20055;-49
2024/02/14 01:47:58;;;;;;;8.82;4.78;;;;;;;6.56;87.41;100722.78;5113506;28;20043;-48
2024/02/14 01:50:29;;;;;;;8.40;4.72;;;;;;;6.68;88.40;100730.31;5113427;28;20048;-48
2024/02/14 01:53:00;;;;;;;7.88;4.78;;;;;;;6.60;88.07;100727.09;5113370;28;20104;-49
2024/02/14 01:55:29;;;;;;;8.35;4.55;;;;;;;6.60;87.62;100727.94;5111846;28;20393;-49
2024/02/14 01:57:59;;;;;;;7.93;4.22;;;;;;;6.51;86.86;100728.28;5113485;27;20047;-49
2024/02/14 02:00:28;;;;;;;8.25;4.50;;;;;;;6.52;86.99;100730.00;5113255;28;20086;-50
2024/02/14 02:02:57;;;;;;;7.75;4.22;;;;;;;6.35;87.50;100731.53;5113275;28;20051;-51
2024/02/14 02:05:26;;;;;;;8.63;4.15;;;;;;;6.42;87.63;100739.19;5113091;28;20092;-50
2024/02/14 02:07:54;;;;;;;7.95;4.18;;;;;;;6.36;87.63;100741.19;5112976;28;20050;-47
2024/02/14 02:10:25;;;;;;;6.82;3.92;;;;;;;6.37;87.26;100734.97;5113130;28;20055;-47
2024/02/14 02:13:00;;;;;;;7.65;4.18;;;;;;;6.35;88.17;100742.13;5113036;28;20609;-51
2024/02/14 02:15:29;;;;;;;9.57;4.20;;;;;;;6.35;87.74;100742.13;5113211;28;20454;-49
2024/02/14 02:17:59;;;;;;;7.38;4.07;;;;;;;6.28;87.06;100745.00;5112926;28;20090;-50
2024/02/14 02:20:28;;;;;;;7.22;4.10;;;;;;;6.14;88.53;100747.25;5112764;28;20050;-50
2024/02/14 02:22:58;;;;;;;7.15;4.00;;;;;;;6.24;88.01;100745.13;5113218;28;20043;-48
2024/02/14 02:25:26;;;;;;;7.68;4.07;;;;;;;6.47;87.70;100754.97;5113953;28;20054;-48
2024/02/14 02:27:57;;;;;;;8.00;4.53;;;;;;;6.55;86.40;100744.91;5112682;28;20078;-46
2024/02/14 02:30:27;;;;;;;7.25;4.13;;;;;;;6.54;86.20;100743.19;5112537;28;20480;-52
2024/02/14 02:32:55;;;;;;;6.93;3.95;;;;;;;6.35;85.99;100747.41;5112507;28;20044;-50
2024/02/14 02:35:25;;;;;;;8.23;3.97;;;;;;;6.34;85.40;100749.19;5112389;28;20082;-46
2024/02/14 02:37:54;;;;;;;6.65;4.07;;;;;;;6.32;86.10;100743.09;5112763;28;20063;-49
2024/02/14 02:40:25;;;;;;;7.03;3.92;;;;;;;6.30;85.61;100745.81;5112835;28;20051;-49
2024/02/14 02:42:53;;;;;;;6.75;4.13;;;;;;;6.36;86.62;100741.19;5112534;28;20043;-48
2024/02/14 02:45:22;;;;;;;6.65;3.83;;;;;;;6.39;86.07;100749.91;5112502;28;20474;-48
2024/02/14 02:47:51;;;;;;;7.55;4.22;;;;;;;6.49;86.30;100751.31;5112186;28;20046;-49
2024/02/14 02:50:21;;;;;;;8.82;4.63;;;;;;;6.46;86.33;100759.38;5112400;28;20394;-49
2024/02/14 02:52:50;;;;;;;7.10;4.07;;;;;;;6.39;87.53;100765.81;5112522;28;20047;-52
2024/02/14 02:55:18;;;;;;;9.02;4.28;;;;;;;6.36;88.13;100767.69;5112316;28;20040;-50
2024/02/14 02:57:48;;;;;;;7.53;4.25;;;;;;;6.41;88.16;100765.75;5112462;27;20400;-47
2024/02/14 03:00:21;;;;;;;9.00;4.75;;;;;;;6.41;88.26;100768.41;5111843;28;20052;-47
2024/02/14 03:02:49;;;;;;;;;;;;;;;6.18;87.69;100762.13;5112445;28;20167;-47
2024/02/14 03:05:18;;;;;;;9.48;4.97;;;;;;;6.13;89.55;100771.13;5112122;28;19919;-49
2024/02/14 03:07:49;;;;;;;9.05;5.28;;;;;;;6.08;89.87;100770.41;5111521;28;20071;-49
2024/02/14 03:10:18;;;;;;;8.23;5.13;;;;;;;6.07;90.07;100776.63;5112003;28;20044;-51
2024/02/14 03:12:49;;;;;;;10.23;5.45;;;;;;;5.98;90.76;100781.34;5111681;28;20043;-51
2024/02/14 03:15:19;;;;;;;8.85;5.88;;;;;;;5.97;91.97;100790.16;5112159;28;20083;-50
2024/02/14 03:17:47;;;;;;;9.63;5.40;;;;;;;5.95;92.01;100785.84;5111596;28;20049;-49
2024/02/14 03:20:16;;;;;;;10.88;5.32;;;;;;;5.98;92.60;100796.31;5111981;28;20576;-48
2024/02/14 03:22:47;;;;;;;9.15;5.65;;;;;;;6.07;91.69;100796.03;5111488;27;20126;-48
2024/02/14 03:25:18;;;;;;;9.75;5.55;;;;;;;5.87;92.64;100799.28;5111378;28;20047;-51
2024/02/14 03:27:47;;;;;;;9.43;5.45;;;;;;;5.82;92.54;100801.25;5111731;28;20131;-48
2024/02/14 03:30:20;;;;;;;9.90;5.82;;;;;;;5.74;94.21;100812.06;5111533;28;20413;-50
2024/02/14 03:32:49;;;;;;;11.13;5.82;;;;;;;5.81;95.94;100809.22;5111588;28;20047;-49
2024/02/14 03:35:19;;;;;;;11.20;6.07;;;;;;;5.65;96.01;100815.00;5111838;28;20100;-49
2024/02/14 03:37:48;;;;;;;11.52;5.80;;;;;;;5.61;95.66;100812.50;5111280;28;20429;-50
2024/02/14 03:40:16;;;;;;;9.85;6.25;;;;;;;5.64;96.49;100813.25;5111267;28;20506;-48
2024/02/14 03:42:45;;;;;;;10.40;5.70;;;;;;;5.68;96.98;100819.31;5111512;28;20084;-49
2024/02/14 03:45:13;;;;;;;10.05;5.88;;;;;;;5.57;97.31;100827.59;5111364;28;20473;-48
2024/02/14 03:47:43;;;;;;;9.77;5.10;;;;;;;5.60;95.81;100826.66;5111370;28;20066;-48
2024/02/14 03:50:11;;;;;;;11.02;5.40;;;;;;;5.60;96.04;100821.38;5111144;28;20052;-50
2024/02/14 03:52:42;;;;;;;10.40;5.70;;;;;;;5.57;96.23;100826.72;5111067;28;20058;-51
2024/02/14 03:55:13;;;;;;;9.52;5.85;;;;;;;5.46;96.40;100835.00;5111282;28;20067;-47
2024/02/14 03:57:42;;;;;;;9.90;5.97;;;;;;;5.56;96.78;100836.44;5111239;28;20461;-49
2024/02/14 04:00:11;;;;;;;10.38;6.00;;;;;;;5.56;96.28;100847.03;5110916;28;20483;-52
2024/02/14 04:02:40;;;;;;;12.23;5.93;;;;;;;5.44;98.26;100842.13;5110968;28;20051;-48
2024/02/14 04:05:11;;;;;;;11.48;6.15;;;;;;;5.44;99.88;100842.13;5110868;28;20092;-47
2024/02/14 04:07:39;;;;;;;10.45;6.25;;;;;;;5.47;100.00;100848.16;5111199;28;20043;-47
2024/02/14 04:10:08;;;;;;;12.45;6.18;;;;;;;5.60;99.53;100853.13;5111819;28;20690;-48
2024/02/14 04:12:37;;;;;;;12.27;6.30;;;;;;;5.62;99.31;100854.81;5111165;28;20051;-49
2024/02/14 04:15:06;;;;;;;11.15;6.05;;;;;;;5.71;99.73;100857.16;5110960;28;20136;-48
2024/02/14 04:17:34;;;;;;;11.68;5.97;;;;;;;5.72;99.30;100858.91;5110821;28;20047;-48
2024/02/14 04:20:03;;;;;;;11.15;7.07;;;;;;;5.75;100.00;100865.88;5114186;28;20044;-49
2024/02/14 04:22:33;;;;;;;13.48;6.55;;;;;;;5.74;100.00;100870.31;5114848;28;20503;-48
2024/02/14 04:25:02;;;;;;;12.88;7.13;;;;;;;5.67;100.00;100875.81;5115124;28;20043;-46
2024/02/14 04:27:30;;;;;;;14.60;6.40;;;;;;;5.68;100.00;100875.75;5115078;28;20043;-50
2024/02/14 04:29:59;;;;;;;11.60;6.63;;;;;;;5.72;100.00;100882.72;5114998;28;20123;-49
2024/02/14 04:32:27;;;;;;;10.15;6.95;;;;;;;5.77;99.57;100876.41;5114669;28;20051;-47
2024/02/14 04:34:56;;;;;;;13.93;6.90;;;;;;;5.86;99.67;100876.13;5114624;28;20051;-48
2024/02/14 04:37:25;;;;;;;11.38;6.72;;;;;;;5.93;98.03;100875.94;5115159;27;20408;-49
2024/02/14 04:39:54;;;;;;;11.07;7.10;;;;;;;5.80;98.89;100881.63;5114855;28;20050;-47
2024/02/14 04:42:22;;;;;;;10.00;6.75;;;;;;;5.86;98.72;100881.41;5114646;28;20385;-50
2024/02/14 04:44:51;;;;;;;12.98;6.97;;;;;;;5.89;99.15;100874.28;5114517;28;20048;-50
2024/02/14 04:47:20;;;;;;;12.70;7.38;;;;;;;5.88;99.01;100879.59;5114735;28;20086;-50
2024/02/14 04:49:49;;;;;;;13.35;6.95;;;;;;;5.82;98.38;100885.97;5114579;28;20039;-48
2024/02/14 04:52:17;;;;;;;14.98;7.13;;;;;;;5.69;100.00;100893.41;5114610;28;20051;-50
2024/02/14 04:54:46;;;;;;;14.48;7.47;;;;;;;5.73;100.00;100902.97;5114248;28;20050;-46
2024/02/14 04:57:15;;;;;;;14.30;7.15;;;;;;;5.80;100.00;100897.50;5114445;28;20039;-51
2024/02/14 04:59:44;;;;;;;14.82;7.47;;;;;;;5.65;100.00;100902.34;5114231;28;20079;-47
2024/02/14 05:02:12;;;;;;;14.27;6.78;;;;;;;5.63;100.00;100904.16;5114212;28;20043;-47
2024/02/14 05:04:41;;;;;;;12.10;7.47;;;;;;;5.60;100.00;100906.91;5114173;27;20044;-48
2024/02/14 05:07:09;;;;;;;14.45;7.10;;;;;;;5.51;100.00;100907.19;5114089;28;20571;-52
2024/02/14 05:09:37;;;;;;;14.57;7.07;;;;;;;5.44;100.00;100905.63;5114108;28;20537;-49
2024/02/14 05:12:06;;;;;;;12.70;6.78;;;;;;;5.37;100.00;100910.19;5113962;28;20059;-50
2024/02/14 05:14:40;;;;;;;16.65;7.72;;;;;;;5.14;100.00;100908.22;5114147;28;20046;-47
2024/02/14 05:17:09;;;;;;;17.77;8.38;;;;;;;5.13;100.00;100914.41;5114267;28;20148;-52
2024/02/14 05:19:37;;;;;;;16.75;8.05;;;;;;;5.20;100.00;100908.94;5114033;28;20043;-47
2024/02/14 05:22:05;;;;;;;15.30;7.70;;;;;;;5.23;100.00;100909.75;5114133;28;20113;-49
2024/02/14 05:24:37;;;;;;;14.98;7.70;;;;;;;5.24;100.00;100913.25;5113824;28;20067;-49
2024/02/14 05:27:06;;;;;;;16.95;7.80;;;;;;;5.21;100.00;100923.88;5113828;28;20177;-49
2024/02/14 05:29:34;;;;;;;15.98;7.97;;;;;;;5.23;100.00;100922.09;5113642;28;20048;-50
2024/02/14 05:32:09;;;;;;;13.00;7.47;;;;;;;5.16;100.00;100926.69;5113734;28;20067;-51
2024/02/14 05:34:37;;;;;;;15.63;7.18;;;;;;;5.25;100.00;100925.56;5113612;27;20412;-47
2024/02/14 05:37:07;;;;;;;17.00;7.75;;;;;;;5.16;100.00;100932.84;5113528;28;20044;-47
2024/02/14 05:39:36;;;;;;;16.63;8.15;;;;;;;5.12;100.00;100930.31;5113752;28;20502;-48
2024/02/14 05:42:06;;;;;;;13.50;7.68;;;;;;;5.24;100.00;100942.34;5113423;28;20541;-50
2024/02/14 05:44:34;;;;;;;16.55;8.68;;;;;;;5.25;100.00;100941.44;5113508;28;20127;-50
2024/02/14 05:47:03;;;;;;;14.38;8.38;;;;;;;5.21;100.00;100940.66;5113411;28;20051;-49
2024/02/14 05:49:33;;;;;;;15.95;8.60;;;;;;;5.15;100.00;100944.31;5113286;28;20445;-48
2024/02/14 05:52:02;;;;;;;15.68;8.52;;;;;;;5.15;100.00;100948.75;5113125;28;20055;-49
2024/02/14 05:54:30;;;;;;;14.65;8.20;;;;;;;5.08;100.00;100953.31;5113510;28;20071;-51
2024/02/14 05:56:58;;;;;;;16.38;8.23;;;;;;;5.09;100.00;100957.69;5115337;28;20071;-47
2024/02/14 05:59:26;;;;;;;17.27;8.82;;;;;;;5.15;100.00;100952.25;5114102;28;20097;-49
2024/02/14 06:01:59;;;;;;;17.88;9.75;;;;;;;5.17;100.00;100955.72;5113449;28;20492;-49
2024/02/14 06:04:27;;;;;;;20.88;10.48;;;;;;;5.13;100.00;100961.16;5113047;28;20097;-49
2024/02/14 06:06:57;;;;;;;21.80;11.23;;;;;;;5.14;100.00;100966.41;5113577;28;20047;-48
2024/02/14 06:09:25;;;;;;;20.65;10.40;;;;;;;5.00;100.00;100965.88;5113401;28;20125;-49
2024/02/14 06:11:54;;;;;;;20.35;10.25;;;;;;;5.02;100.00;100972.00;5113194;27;20051;-54
2024/02/14 06:14:22;;;;;;;19.60;10.55;;;;;;;5.04;100.00;100975.47;5113370;28;20044;-48
2024/02/14 06:16:52;;;;;;;19.17;9.63;;;;;;;5.10;100.00;100980.59;5112969;28;20404;-51
2024/02/14 06:19:23;;;;;;;18.02;9.57;;;;;;;5.02;100.00;100982.59;5113189;28;20051;-51
2024/02/14 06:21:51;;;;;;;19.27;9.93;;;;;;;5.05;100.00;100977.22;5112756;28;20082;-48
2024/02/14 06:24:21;;;;;;;19.50;9.70;;;;;;;5.17;100.00;100973.38;5112953;28;20096;-51
2024/02/14 06:26:49;;;;;;;17.60;9.52;;;;;;;5.21;100.00;100976.78;5113153;28;20101;-47
2024/02/14 06:29:17;;;;;;;16.95;9.10;;;;;;;5.25;100.00;100970.53;5113030;28;20445;-48
2024/02/14 06:31:45;;;;;;;18.17;9.15;;;;;;;5.36;100.00;100973.75;5112850;28;20071;-51
2024/02/14 06:34:14;;;;;;;19.92;8.90;;;;;;;5.49;100.00;100976.91;5113081;28;20126;-51
2024/02/14 06:36:42;;;;;;;17.27;9.40;;;;;;;5.47;100.00;100979.59;5112839;28;20043;-51
2024/02/14 06:39:11;;;;;;;17.35;8.60;;;;;;;5.56;100.00;100983.78;5112707;28;20043;-49
2024/02/14 06:41:41;;;;;;;18.02;9.25;;;;;;;5.64;100.00;100980.00;5111995;28;20055;-51
2024/02/14 06:44:09;;;;;;;19.05;9.50;;;;;;;5.72;100.00;100988.59;5112416;28;20047;-49
2024/02/14 06:46:37;;;;;;;18.25;9.57;;;;;;;5.91;100.00;100985.47;5112925;28;20055;-48
2024/02/14 06:49:06;;;;;;;17.17;9.02;;;;;;;5.99;100.00;100989.63;5112685;27;20420;-49
2024/02/14 06:51:34;;;;;;;18.73;9.93;;;;;;;6.07;100.00;100983.22;5112563;28;20426;-48
2024/02/14 06:54:03;;;;;;;17.90;9.55;;;;;;;6.15;99.52;100992.66;5112259;28;20138;-51
2024/02/14 06:56:32;;;;;;;20.98;9.57;;;;;;;6.22;98.35;100991.56;5112367;28;20155;-49
2024/02/14 06:59:03;;;;;;;16.50;9.10;;;;;;;6.29;98.35;100998.44;5112835;28;20039;-49
2024/02/14 07:01:32;;;;;;;17.10;9.10;;;;;;;6.39;98.01;100999.00;5112778;28;20055;-50
2024/02/14 07:04:01;;;;;;;20.42;9.23;;;;;;;6.48;96.80;101003.16;5112097;28;20416;-46
2024/02/14 07:06:29;;;;;;;15.63;8.68;;;;;;;6.53;96.87;101001.22;5112274;28;20039;-49
2024/02/14 07:08:58;;;;;;;16.83;9.32;;;;;;;6.56;96.50;101006.41;5112432;27;20047;-50
2024/02/14 07:11:26;;;;;;;17.00;9.00;;;;;;;6.71;95.70;101003.28;5112483;28;20048;-49
2024/02/14 07:13:55;;;;;;;14.70;8.43;;;;;;;6.79;95.42;101011.84;5112189;28;20138;-46
2024/02/14 07:16:24;;;;;;;16.98;8.93;;;;;;;6.91;94.62;101012.38;5111083;28;20051;-50
2024/02/14 07:18:53;;;;;;;15.90;8.15;;;;;;;6.94;94.11;101012.25;5112267;27;20051;-49
2024/02/14 07:21:21;;;;;;;17.95;8.07;;;;;;;7.04;93.83;101005.72;5112541;28;20400;-51
2024/02/14 07:23:50;;;;;;;15.48;8.05;;;;;;;7.17;92.66;101005.28;5112026;28;20054;-47
2024/02/14 07:26:18;;;;;;;17.17;9.27;;;;;;;7.22;91.68;101002.44;5112108;28;20365;-47
2024/02/14 07:28:46;;;;;;;15.52;8.20;;;;;;;7.20;92.74;100999.00;5111944;28;20043;-49
2024/02/14 07:31:14;;;;;;;14.25;7.80;;;;;;;7.34;91.25;101004.72;5111989;28;20426;-47
2024/02/14 07:33:44;;;;;;;16.73;8.30;;;;;;;7.38;90.05;101002.81;5111904;28;20130;-49
2024/02/14 07:36:12;;;;;;;13.43;7.95;;;;;;;7.19;89.14;101002.56;5111838;28;20747;-48
2024/02/14 07:38:42;;;;;;;12.30;7.55;;;;;;;7.32;89.95;101001.22;5111633;28;20102;-49
2024/02/14 07:41:10;;;;;;;13.25;7.30;;;;;;;7.46;88.40;101012.22;5111816;28;20054;-49
2024/02/14 07:43:39;;;;;;;14.10;7.90;;;;;;;7.56;87.89;101006.59;5111780;28;20051;-49
2024/02/14 07:46:07;;;;;;;13.25;7.68;;;;;;;7.73;88.60;101015.69;5111649;28;20143;-49
2024/02/14 07:48:35;;;;;;;12.40;7.45;;;;;;;7.80;86.56;101012.78;5112035;28;20048;-48
2024/02/14 07:51:08;;;;;;;14.60;7.45;;;;;;;7.93;86.31;101014.97;5114256;28;20054;-47
2024/02/14 07:53:36;;;;;;;15.55;8.02;;;;;;;8.01;86.03;101014.69;5111208;28;20083;-49
2024/02/14 07:56:06;;;;;;;15.32;7.75;;;;;;;8.11;83.94;101015.19;5111581;28;20139;-47
2024/02/14 07:58:34;;;;;;;11.25;7.63;;;;;;;8.13;83.51;101013.34;5111354;28;20048;-48
2024/02/14 08:01:03;;;;;;;14.27;7.70;;;;;;;8.27;83.33;101011.00;5111368;28;20050;-47
2024/02/14 08:03:32;;;;;;;12.32;7.30;;;;;;;8.27;83.33;101011.88;5111049;28;20043;-48
2024/02/14 08:06:01;;;;;;;14.45;7.30;;;;;;;8.38;83.28;101021.25;5111569;28;20109;-49
2024/02/14 08:08:31;;;;;;;13.20;7.18;;;;;;;8.52;81.59;101026.91;5110377;28;20121;-48
2024/02/14 08:10:59;;;;;;;12.80;7.70;;;;;;;8.60;81.62;101028.34;5111534;28;20048;-49
2024/02/14 08:13:28;;;;;;;90.07;12.75;;;;;;;8.47;80.43;101023.56;5111298;28;20086;-47
2024/02/14 08:15:58;;;;;;;84.78;13.00;;;;;;;8.63;80.08;101026.50;5111364;28;20130;-47
2024/02/14 08:18:27;;;;;;;16.23;7.63;;;;;;;8.52;79.80;101024.25;5111697;28;20043;-46
2024/02/14 08:20:56;;;;;;;18.25;7.72;;;;;;;8.55;80.35;101025.00;5111545;28;20050;-45
2024/02/14 08:23:24;;;;;;;13.15;7.18;;;;;;;8.69;79.37;101029.78;5111261;28;20377;-48
2024/02/14 08:25:54;;;;;;;18.58;7.68;;;;;;;8.79;79.92;101022.28;5111146;28;20095;-46
2024/02/14 08:28:23;;;;;;;13.95;7.70;;;;;;;8.82;79.75;101022.16;5110909;28;20511;-46
2024/02/14 08:30:55;;;;;;;13.27;7.63;;;;;;;8.78;77.16;101026.75;5110905;28;20060;-46
2024/02/14 08:33:24;;;;;;;12.48;7.13;;;;;;;8.72;78.14;101028.78;5110747;28;20047;-45
2024/02/14 08:35:53;;;;;;;13.80;6.72;;;;;;;8.90;77.67;101030.69;5110877;28;20044;-45
2024/02/14 08:38:21;;;;;;;13.85;7.13;;;;;;;8.95;77.45;101026.03;5111010;28;20634;-47
2024/02/14 08:40:50;;;;;;;12.05;6.75;;;;;;;9.04;78.44;101025.66;5110834;28;20576;-48
2024/02/14 08:43:24;;;;;;;10.65;6.88;;;;;;;9.17;76.29;101026.91;5110931;28;20488;-48
2024/02/14 08:45:52;;;;;;;16.00;6.63;;;;;;;9.00;74.74;101033.84;5111080;28;20101;-50
2024/02/14 08:48:21;;;;;;;12.52;7.18;;;;;;;9.22;74.68;101028.50;5111117;28;20481;-48
2024/02/14 08:50:49;;;;;;;13.57;6.72;;;;;;;9.33;74.77;101020.91;5111132;28;20116;-46
2024/02/14 08:53:17;;;;;;;12.25;6.25;;;;;;;9.32;72.91;101017.38;5110962;28;20058;-46
2024/02/14 08:55:45;;;;;;;11.50;6.38;;;;;;;9.22;73.99;101024.03;5110988;28;20473;-48
2024/02/14 08:58:14;;;;;;;11.82;6.18;;;;;;;9.30;72.55;101021.91;5111241;28;20085;-48
2024/02/14 09:00:43;;;;;;;15.05;6.80;;;;;;;9.31;72.50;101015.66;5111312;28;20070;-45
2024/02/14 09:03:11;;;;;;;12.57;7.75;;;;;;;9.33;72.05;101010.25;5111148;28;20058;-44
2024/02/14 09:05:40;;;;;;;11.25;7.43;;;;;;;9.52;72.16;101015.66;5113251;28;20470;-48
2024/02/14 09:08:08;;;;;;;11.77;6.03;;;;;;;9.66;72.10;101019.47;5114434;28;20054;-57
2024/02/14 09:10:36;;;;;;;14.43;5.63;;;;;;;9.65;70.17;101023.06;5114422;27;20101;-48
2024/02/14 09:13:07;;;;;;;10.00;5.63;;;;;;;9.76;69.76;101019.91;5114495;28;20427;-48
2024/02/14 09:15:35;;;;;;;10.38;5.00;;;;;;;9.82;66.99;101014.28;5114642;28;20047;-46
2024/02/14 09:18:05;;;;;;;8.55;5.22;;;;;;;9.91;68.63;101015.69;5114521;28;20057;-49
2024/02/14 09:20:33;;;;;;;12.13;5.18;;;;;;;10.04;66.92;101020.41;5114245;28;20050;-50
2024/02/14 09:23:02;;;;;;;8.32;4.60;;;;;;;10.11;66.87;101020.97;5114084;28;20065;-47
2024/02/14 09:25:30;;;;;;;8.65;4.75;;;;;;;10.20;68.36;101015.22;5114467;28;20108;-50
2024/02/14 09:28:01;;;;;;;9.18;4.60;;;;;;;10.10;66.81;101008.56;5114194;27;20082;-48
2024/02/14 09:30:30;;;;;;;11.52;5.05;;;;;;;10.06;66.96;101012.34;5114213;28;20051;-47
2024/02/14 09:33:07;;;;;;;10.45;5.40;;;;;;;10.09;65.67;101006.84;5114127;28;20040;-51
2024/02/14 09:35:37;;;;;;;10.00;5.10;;;;;;;10.16;65.83;101008.31;5113806;27;20128;-50
2024/02/14 09:38:05;;;;;;;10.93;4.90;;;;;;;10.22;66.06;101005.38;5114143;28;20046;-49
2024/02/14 09:40:34;;;;;;;9.82;5.32;;;;;;;10.24;66.13;101006.19;5113843;28;20044;-48
2024/02/14 09:43:07;;;;;;;9.85;4.90;;;;;;;10.30;66.39;101005.00;5113818;28;20345;-47
2024/02/14 09:45:37;;;;;;;9.00;4.83;;;;;;;10.32;65.86;100997.78;5102441;27;20069;-52
2024/02/14 09:48:09;;;;;;;8.13;4.70;;;;;;;10.28;64.35;101002.41;5092147;28;20269;-50
2024/02/14 09:50:38;;;;;;;13.90;4.90;;;;;;;10.05;61.68;101005.28;5091747;28;20090;-51
2024/02/14 09:53:08;;;;;;;8.20;4.68;;;;;;;10.04;60.72;101004.41;5092204;28;20070;-50
2024/02/14 09:55:38;;;;;;;7.15;4.13;;;;;;;9.83;61.25;100999.16;5096253;28;20465;-48
2024/02/14 09:58:07;;;;;;;8.90;4.10;;;;;;;10.04;62.36;100999.06;5093603;28;20040;-49
2024/02/14 10:00:36;;;;;;;8.23;4.15;;;;;;;9.79;61.42;101000.25;5093649;28;20138;-49
2024/02/14 10:03:06;;;;;;;7.15;3.80;;;;;;;9.57;61.52;100998.56;5093209;28;20097;-52
2024/02/14 10:05:35;;;;;;;8.88;4.80;;;;;;;9.71;62.67;100998.78;5093210;28;20403;-49
2024/02/14 10:08:08;;;;;;;8.27;4.50;;;;;;;10.01;62.40;101003.66;5092978;28;20044;-52
2024/02/14 10:10:38;;;;;;;;;;;;;;;9.91;60.50;101005.03;5093410;28;20425;-50
2024/02/14 10:13:07;;;;;;;8.10;3.40;;;;;;;10.07;61.12;100998.06;5092932;28;20384;-47
2024/02/14 10:15:35;;;;;;;6.45;3.15;;;;;;;10.01;60.12;101004.53;5092628;28;20385;-50
2024/02/14 10:18:04;;;;;;;6.07;3.08;;;;;;;10.10;59.97;100994.38;5092132;28;20048;-50
2024/02/14 10:20:35;;;;;;;4.80;2.38;;;;;;;9.99;57.70;100997.53;5092749;28;20051;-49
2024/02/14 10:23:04;;;;;;;5.47;2.40;;;;;;;9.84;57.12;100992.91;5092653;28;20040;-48
2024/02/14 10:25:36;;;;;;;5.55;2.67;;;;;;;9.95;58.49;100990.63;5092561;28;20070;-50
2024/02/14 10:28:08;;;;;;;6.90;3.40;;;;;;;9.96;58.55;100995.03;5092441;28;20044;-51
2024/02/14 10:30:38;;;;;;;7.32;3.60;;;;;;;9.74;59.34;100985.31;5092687;28;20048;-50
2024/02/14 10:33:07;;;;;;;6.70;3.15;;;;;;;9.72;60.42;100989.88;5092441;28;20047;-48
2024/02/14 10:35:55;;;;;;;7.38;3.50;;;;;;;9.91;60.59;100978.38;5092283;28;20094;-50
2024/02/14 10:38:30;;;;;;;9.75;3.45;;;;;;;10.16;59.71;100986.97;5092437;28;20048;-49
2024/02/14 10:41:00;;;;;;;7.65;3.30;;;;;;;10.36;58.72;100987.88;5092374;28;20082;-49
2024/02/14 10:43:28;;;;;;;4.47;2.90;;;;;;;10.53;58.74;100982.59;5092499;28;20095;-49
2024/02/14 10:46:00;;;;;;;4.72;2.72;;;;;;;10.55;58.29;100978.03;5092577;28;20123;-49
2024/02/14 10:48:31;;;;;;;5.88;2.75;;;;;;;10.37;58.18;100974.47;5092241;28;20044;-49
2024/02/14 10:51:03;;;;;;;7.22;2.97;;;;;;;10.06;57.36;100980.34;5092356;28;20404;-47
2024/02/14 10:53:34;;;;;;;6.20;3.30;;;;;;;10.00;58.91;100967.28;5092427;28;20048;-53
2024/02/14 10:56:03;;;;;;;5.95;3.25;;;;;;;10.24;59.16;100968.84;5092397;28;20048;-47
2024/02/14 10:58:34;;;;;;;6.45;3.50;;;;;;;10.37;59.63;100965.59;5092378;28;20130;-52
2024/02/14 11:01:03;;;;;;;8.80;3.80;;;;;;;10.57;60.36;100960.16;5092141;28;20044;-48
2024/02/14 11:03:32;;;;;;;6.13;3.22;;;;;;;10.64;60.53;100956.25;5091984;28;20055;-50
2024/02/14 11:06:04;;;;;;;6.75;3.85;;;;;;;10.47;59.55;100958.88;5092333;28;20048;-45
2024/02/14 11:08:35;;;;;;;7.18;3.80;;;;;;;10.58;60.07;100954.75;5092130;28;20051;-50
2024/02/14 11:11:04;;;;;;;6.18;3.60;;;;;;;10.53;60.27;100954.13;5092155;28;20075;-48
2024/02/14 11:13:36;;;;;;;7.25;3.63;;;;;;;10.57;60.42;100952.16;5091924;28;20052;-49
2024/02/14 11:16:07;;;;;;;7.90;4.43;;;;;;;10.64;60.85;100953.59;5091641;28;20105;-49
2024/02/14 11:18:36;;;;;;;7.10;4.18;;;;;;;10.60;59.46;100952.00;5091719;28;20453;-48
2024/02/14 11:21:17;;;;;;;9.02;4.65;;;;;;;10.31;60.21;100948.94;5091621;28;20139;-48
2024/02/14 11:23:53;;;;;;;7.55;4.30;;;;;;;10.28;61.65;100954.44;5091779;28;20048;-47
2024/02/14 11:26:23;;;;;;;8.13;4.18;;;;;;;10.48;61.84;100944.59;5091667;28;20055;-52
2024/02/14 11:29:01;;;;;;;8.95;4.28;;;;;;;10.67;60.92;100953.44;5091934;28;20056;-49
2024/02/14 11:31:34;;;;;;;9.38;4.07;;;;;;;10.71;60.42;100943.47;5092025;28;20048;-46
2024/02/14 11:34:08;;;;;;;6.85;4.05;;;;;;;10.79;60.17;100936.81;5091809;28;20127;-50
2024/02/14 11:36:39;;;;;;;6.90;3.88;;;;;;;10.94;60.03;100932.50;5091209;28;20451;-46